createdAt,value
2019-02-26T00:04:36.970Z,60.39
2019-02-26T00:07:16.284Z,60.49
2019-02-26T00:09:57.568Z,61.25
2019-02-26T00:12:35.578Z,61.73
2019-02-26T00:15:22.558Z,61.50
2019-02-26T00:17:53.112Z,61.62
2019-02-26T00:20:23.530Z,59.76
2019-02-26T00:22:55.332Z,60.93
2019-02-26T00:25:31.333Z,60.38
2019-02-26T00:28:01.630Z,59.67
2019-02-26T00:30:33.478Z,60.06
2019-02-26T00:33:09.671Z,60.24
2019-02-26T00:35:41.652Z,58.94
2019-02-26T00:38:32.932Z,59.77
2019-02-26T00:41:08.666Z,60.22
2019-02-26T00:43:38.922Z,60.46
2019-02-26T00:46:10.359Z,60.14
2019-02-26T00:48:52.225Z,59.99
2019-02-26T00:51:23.158Z,59.85
2019-02-26T00:57:06.471Z,58.84
2019-02-26T01:02:26.006Z,61.14
2019-02-26T01:04:56.404Z,60.80
2019-02-26T01:07:47.397Z,60.20
2019-02-26T01:10:44.121Z,59.84
2019-02-26T01:13:22.421Z,61.25
2019-02-26T01:15:58.402Z,59.71
2019-02-26T01:18:29.031Z,58.93
2019-02-26T01:21:22.154Z,59.54
2019-02-26T01:24:04.233Z,59.80
2019-02-26T01:26:42.660Z,59.99
2019-02-26T01:29:25.242Z,60.65
2019-02-26T01:32:02.211Z,59.95
2019-02-26T01:34:40.403Z,59.82
2019-02-26T01:37:27.865Z,60.39
2019-02-26T01:40:07.337Z,59.00
2019-02-26T01:43:01.126Z,58.38
2019-02-26T01:46:03.342Z,58.26
2019-02-26T01:48:34.491Z,57.97
2019-02-26T01:51:26.107Z,59.14
2019-02-26T01:54:01.834Z,59.91
2019-02-26T01:56:34.048Z,59.40
2019-02-26T01:59:23.194Z,57.73
2019-02-26T02:01:54.157Z,58.36
2019-02-26T02:04:55.068Z,59.94
2019-02-26T02:07:32.106Z,57.35
2019-02-26T02:10:03.236Z,57.91
2019-02-26T02:13:00.279Z,57.54
2019-02-26T02:15:37.904Z,59.09
2019-02-26T02:18:23.016Z,58.49
2019-02-26T02:20:58.840Z,57.02
2019-02-26T02:23:30.374Z,57.01
2019-02-26T02:26:20.217Z,57.29
2019-02-26T02:28:50.577Z,56.97
2019-02-26T02:31:22.004Z,57.65
2019-02-26T02:33:58.142Z,56.33
2019-02-26T02:36:28.413Z,54.87
2019-02-26T02:39:18.179Z,54.67
2019-02-26T02:41:55.085Z,54.93
2019-02-26T02:44:25.636Z,54.36
2019-02-26T02:47:27.876Z,54.64
2019-02-26T02:50:05.152Z,54.92
2019-02-26T02:52:40.076Z,54.82
2019-02-26T02:55:31.971Z,54.62
2019-02-26T02:58:02.237Z,55.35
2019-02-26T03:00:34.488Z,56.80
2019-02-26T03:03:09.967Z,57.08
2019-02-26T03:05:41.510Z,56.39
2019-02-26T03:08:31.387Z,55.40
2019-02-26T03:13:56.999Z,55.45
2019-02-26T03:16:28.872Z,54.67
2019-02-26T03:18:59.195Z,54.93
2019-02-26T03:21:30.644Z,55.66
2019-02-26T03:24:12.374Z,53.57
2019-02-26T03:26:42.620Z,55.82
2019-02-26T03:29:31.793Z,54.41
2019-02-26T03:35:02.158Z,52.92
2019-02-26T03:37:36.605Z,53.73
2019-02-26T03:40:12.588Z,54.00
2019-02-26T03:48:09.977Z,53.20
2019-02-26T03:50:45.888Z,52.05
2019-02-26T03:53:16.193Z,53.09
2019-02-26T03:56:25.793Z,52.76
2019-02-26T03:59:03.986Z,53.32
2019-02-26T04:01:49.662Z,52.09
2019-02-26T04:04:20.731Z,54.19
2019-02-26T04:06:58.485Z,55.30
2019-02-26T04:09:46.673Z,51.84
2019-02-26T04:12:21.724Z,54.80
2019-02-26T04:14:51.976Z,55.17
2019-02-26T04:17:25.465Z,54.01
2019-02-26T04:20:02.559Z,51.72
2019-02-26T04:22:42.354Z,52.40
2019-02-26T04:25:24.644Z,52.41
2019-02-26T04:28:15.303Z,51.97
2019-02-26T04:31:07.848Z,52.94
2019-02-26T04:34:08.772Z,52.23
2019-02-26T04:37:17.404Z,53.21
2019-02-26T04:40:13.995Z,52.33
2019-02-26T04:43:21.961Z,52.26
2019-02-26T04:46:31.584Z,52.57
2019-02-26T04:49:08.443Z,51.46
2019-02-26T04:51:41.532Z,52.31
2019-02-26T04:54:32.739Z,52.83
2019-02-26T04:57:08.022Z,52.33
2019-02-26T04:59:41.311Z,51.81
2019-02-26T05:02:35.499Z,51.91
2019-02-26T05:08:12.335Z,53.08
2019-02-26T05:11:02.865Z,53.04
2019-02-26T05:13:54.196Z,53.06
2019-02-26T05:20:09.347Z,52.90
2019-02-26T05:22:43.640Z,53.14
2019-02-26T05:28:14.071Z,56.82
2019-02-26T05:30:49.509Z,54.78
2019-02-26T05:33:27.682Z,55.07
2019-02-26T05:36:06.066Z,56.52
2019-02-26T05:38:42.015Z,57.79
2019-02-26T05:41:18.488Z,57.67
2019-02-26T05:43:52.147Z,58.98
2019-02-26T05:46:43.029Z,58.87
2019-02-26T05:49:37.082Z,57.72
2019-02-26T05:52:10.443Z,59.74
2019-02-26T05:54:41.306Z,59.65
2019-02-26T05:57:26.071Z,59.04
2019-02-26T06:03:20.644Z,59.76
2019-02-26T06:06:03.116Z,59.55
2019-02-26T06:08:36.320Z,59.55
2019-02-26T06:14:54.009Z,59.85
2019-02-26T06:17:30.886Z,60.75
2019-02-26T06:20:11.944Z,60.12
2019-02-26T06:25:35.929Z,59.79
2019-02-26T06:28:20.525Z,59.08
2019-02-26T06:33:53.554Z,61.34
2019-02-26T06:39:26.929Z,58.84
2019-02-26T06:42:17.488Z,57.79
2019-02-26T06:44:49.426Z,59.16
2019-02-26T06:47:39.237Z,57.73
2019-02-26T06:50:12.938Z,58.83
2019-02-26T06:53:04.430Z,56.83
2019-02-26T06:55:39.705Z,55.63
2019-02-26T06:58:29.247Z,56.89
2019-02-26T07:01:07.170Z,57.39
2019-02-26T07:03:43.345Z,55.48
2019-02-26T07:06:14.013Z,55.24
2019-02-26T07:08:46.676Z,52.87
2019-02-26T07:11:30.170Z,54.95
2019-02-26T07:14:07.897Z,54.50
2019-02-26T07:16:43.687Z,56.97
2019-02-26T07:19:20.179Z,56.31
2019-02-26T07:21:52.958Z,57.18
2019-02-26T07:24:44.534Z,55.42
2019-02-26T07:27:20.017Z,55.27
2019-02-26T07:32:40.769Z,52.90
2019-02-26T07:35:18.097Z,54.23
2019-02-26T07:37:48.671Z,55.65
2019-02-26T07:46:27.883Z,54.32
2019-02-26T07:49:04.224Z,54.08
2019-02-26T07:51:43.626Z,52.31
2019-02-26T07:54:14.189Z,53.77
2019-02-26T07:56:44.674Z,52.31
2019-02-26T07:59:15.211Z,53.91
2019-02-26T08:01:47.195Z,54.21
2019-02-26T08:04:28.764Z,53.16
2019-02-26T08:07:01.365Z,52.11
2019-02-26T08:09:36.607Z,52.37
2019-02-26T08:12:09.397Z,52.08
2019-02-26T08:14:58.387Z,52.74
2019-02-26T08:17:28.877Z,53.92
2019-02-26T08:22:46.774Z,52.31
2019-02-26T08:25:17.324Z,50.59
2019-02-26T08:27:49.916Z,52.66
2019-02-26T08:30:26.166Z,52.87
2019-02-26T08:33:05.249Z,52.23
2019-02-26T08:35:41.429Z,51.29
2019-02-26T08:40:54.283Z,51.30
2019-02-26T08:43:24.855Z,53.01
2019-02-26T08:45:55.416Z,51.04
2019-02-26T08:48:26.985Z,52.49
2019-02-26T08:51:06.174Z,53.38
2019-02-26T08:53:51.899Z,50.18
2019-02-26T08:59:11.740Z,50.36
2019-02-26T09:01:42.455Z,50.32
2019-02-26T09:04:14.503Z,50.94
2019-02-26T09:06:52.431Z,50.64
2019-02-26T09:09:30.175Z,50.92
2019-02-26T09:12:06.829Z,47.53
2019-02-26T09:14:40.275Z,50.26
2019-02-26T09:20:14.683Z,48.75
2019-02-26T09:25:40.161Z,48.61
2019-02-26T09:28:10.940Z,50.08
2019-02-26T09:30:41.520Z,49.71
2019-02-26T09:33:12.062Z,47.78
2019-02-26T09:35:45.249Z,49.32
2019-02-26T09:38:22.953Z,47.86
2019-02-26T09:43:59.356Z,45.97
2019-02-26T09:46:37.198Z,44.69
2019-02-26T09:49:14.354Z,45.14
2019-02-26T09:51:44.911Z,46.75
2019-02-26T09:54:17.619Z,48.75
2019-02-26T09:56:53.303Z,46.97
2019-02-26T09:59:23.896Z,47.15
2019-02-26T10:01:56.426Z,45.27
2019-02-26T10:04:44.916Z,44.71
2019-02-26T10:07:20.568Z,46.13
2019-02-26T10:09:51.155Z,46.14
2019-02-26T10:12:21.929Z,47.51
2019-02-26T10:14:54.564Z,44.37
2019-02-26T10:17:45.178Z,44.74
2019-02-26T10:20:23.248Z,46.51
2019-02-26T10:26:05.764Z,45.80
2019-02-26T10:28:42.672Z,48.39
2019-02-26T10:31:24.137Z,47.61
2019-02-26T10:37:15.896Z,47.01
2019-02-26T10:39:47.955Z,45.78
2019-02-26T10:42:24.125Z,47.56
2019-02-26T10:44:54.740Z,45.82
2019-02-26T10:47:27.338Z,46.94
2019-02-26T10:50:02.917Z,46.34
2019-02-26T10:52:33.708Z,47.43
2019-02-26T10:55:06.477Z,48.46
2019-02-26T11:03:21.286Z,46.16
2019-02-26T11:05:52.393Z,45.94
2019-02-26T11:08:30.518Z,46.99
2019-02-26T11:11:09.462Z,44.52
2019-02-26T11:13:47.019Z,44.93
2019-02-26T11:16:25.118Z,45.19
2019-02-26T11:19:19.687Z,44.85
2019-02-26T11:21:55.550Z,45.03
2019-02-26T11:27:31.864Z,44.56
2019-02-26T11:30:05.011Z,44.93
2019-02-26T11:33:06.066Z,45.15
2019-02-26T11:38:30.827Z,44.92
2019-02-26T11:41:20.846Z,45.64
2019-02-26T11:43:51.434Z,44.08
2019-02-26T11:46:23.143Z,44.77
2019-02-26T11:52:04.717Z,43.48
2019-02-26T11:54:37.264Z,43.35
2019-02-26T11:57:15.179Z,45.39
2019-02-26T12:02:46.156Z,49.38
2019-02-26T12:05:16.834Z,46.67
2019-02-26T12:07:48.727Z,47.29
2019-02-26T12:10:40.422Z,45.31
2019-02-26T12:13:17.153Z,44.55
2019-02-26T12:18:44.956Z,44.83
2019-02-26T12:21:21.288Z,45.62
2019-02-26T12:23:51.798Z,44.40
2019-02-26T12:26:25.580Z,47.14
2019-02-26T12:31:42.994Z,48.90
2019-02-26T12:34:14.588Z,49.63
2019-02-26T12:37:06.613Z,49.10
2019-02-26T12:42:29.570Z,44.57
2019-02-26T12:45:01.826Z,45.73
2019-02-26T12:47:54.481Z,46.42
2019-02-26T12:50:32.988Z,43.90
2019-02-26T12:53:15.846Z,44.61
2019-02-26T12:55:54.042Z,43.18
2019-02-26T12:58:29.501Z,44.49
2019-02-26T13:01:00.275Z,46.54
2019-02-26T13:03:30.954Z,48.09
2019-02-26T13:06:37.507Z,46.21
2019-02-26T13:09:32.852Z,46.24
2019-02-26T13:12:25.066Z,47.51
2019-02-26T13:15:04.899Z,47.41
2019-02-26T13:17:54.309Z,47.24
2019-02-26T13:20:26.972Z,48.10
2019-02-26T13:23:16.436Z,48.48
2019-02-26T13:25:48.965Z,46.35
2019-02-26T13:28:19.483Z,45.39
2019-02-26T13:30:49.930Z,46.66
2019-02-26T13:33:26.283Z,45.54
2019-02-26T13:36:11.986Z,44.83
2019-02-26T13:38:45.900Z,46.29
2019-02-26T13:41:38.896Z,47.25
2019-02-26T13:44:11.616Z,48.26
2019-02-26T13:46:42.241Z,48.05
2019-02-26T13:49:12.961Z,45.05
2019-02-26T13:51:56.109Z,43.88
2019-02-26T13:54:27.346Z,43.09
2019-02-26T13:56:57.909Z,44.25
2019-02-26T13:59:53.007Z,44.08
2019-02-26T14:05:15.202Z,46.74
2019-02-26T14:08:06.470Z,45.51
2019-02-26T14:10:37.104Z,47.37
2019-02-26T14:13:07.812Z,47.79
2019-02-26T14:15:45.399Z,46.20
2019-02-26T14:18:21.478Z,45.61
2019-02-26T14:26:34.369Z,46.35
2019-02-26T14:29:05.323Z,46.12
2019-02-26T14:31:35.866Z,48.19
2019-02-26T14:34:06.155Z,48.70
2019-02-26T14:36:36.422Z,47.83
2019-02-26T14:39:27.137Z,47.07
2019-02-26T14:41:57.406Z,47.34
2019-02-26T14:44:28.016Z,46.18
2019-02-26T14:49:52.927Z,46.82
2019-02-26T14:52:23.156Z,46.65
2019-02-26T14:54:54.007Z,46.40
2019-02-26T14:57:24.303Z,45.16
2019-02-26T14:59:55.282Z,45.76
2019-02-26T15:02:47.879Z,45.13
2019-02-26T15:08:30.606Z,46.00
2019-02-26T15:11:25.974Z,46.83
2019-02-26T15:13:56.298Z,47.48
2019-02-26T15:16:26.609Z,49.31
2019-02-26T15:18:56.968Z,50.81
2019-02-26T15:21:47.674Z,52.05
2019-02-26T15:24:17.983Z,52.07
2019-02-26T15:27:35.740Z,53.09
2019-02-26T15:30:24.545Z,53.75
2019-02-26T15:32:56.192Z,54.67
2019-02-26T15:36:06.379Z,55.51
2019-02-26T15:38:36.650Z,55.62
2019-02-26T15:41:26.852Z,55.22
2019-02-26T15:46:48.285Z,51.35
2019-02-26T15:49:20.314Z,53.40
2019-02-26T15:52:12.940Z,54.97
2019-02-26T15:54:45.153Z,56.40
2019-02-26T15:57:17.802Z,57.23
2019-02-26T16:02:40.933Z,58.56
2019-02-26T16:11:10.290Z,55.39
2019-02-26T16:13:40.597Z,55.47
2019-02-26T16:16:10.839Z,56.36
2019-02-26T16:19:01.520Z,56.72
2019-02-26T16:24:23.234Z,57.49
2019-02-26T16:29:45.353Z,60.31
2019-02-26T16:38:17.077Z,55.77
2019-02-26T16:43:39.136Z,55.91
2019-02-26T16:46:11.353Z,59.38
2019-02-26T16:48:41.570Z,60.88
2019-02-26T16:51:11.763Z,61.70
2019-02-26T16:53:42.350Z,61.15
2019-02-26T16:56:36.695Z,61.12
2019-02-26T16:59:07.840Z,62.57
2019-02-26T17:01:44.383Z,60.93
2019-02-26T17:04:38.550Z,59.31
2019-02-26T17:07:18.376Z,58.33
2019-02-26T17:10:09.697Z,59.97
2019-02-26T17:12:40.027Z,61.10
2019-02-26T17:15:32.476Z,61.93
2019-02-26T17:18:29.065Z,62.53
2019-02-26T17:20:59.434Z,62.42
2019-02-26T17:23:29.768Z,62.65
2019-02-26T17:26:00.638Z,61.17
2019-02-26T17:28:37.357Z,61.44
2019-02-26T17:31:07.586Z,62.20
2019-02-26T17:33:38.081Z,62.58
2019-02-26T17:36:08.514Z,62.20
2019-02-26T17:41:30.714Z,65.00
2019-02-26T17:44:02.200Z,66.43
2019-02-26T17:46:38.321Z,67.26
2019-02-26T17:49:08.608Z,65.77
2019-02-26T17:51:38.824Z,64.14
2019-02-26T17:54:09.108Z,64.73
2019-02-26T17:56:39.381Z,63.67
2019-02-26T17:59:09.614Z,64.65
2019-02-26T18:01:39.893Z,65.05
2019-02-26T18:04:10.140Z,65.83
2019-02-26T18:06:40.378Z,65.92
2019-02-26T18:09:10.648Z,65.29
2019-02-26T18:11:42.647Z,64.54
2019-02-26T18:14:12.862Z,64.73
2019-02-26T18:22:27.132Z,63.89
2019-02-26T18:24:57.389Z,63.69
2019-02-26T18:27:30.363Z,64.01
2019-02-26T18:30:54.287Z,63.73
2019-02-26T18:33:24.467Z,64.52
2019-02-26T18:35:54.589Z,64.51
2019-02-26T18:38:43.948Z,63.54
2019-02-26T18:41:14.720Z,62.71
2019-02-26T18:47:07.093Z,63.93
2019-02-26T18:56:17.553Z,65.15
2019-02-26T18:58:49.072Z,65.94
2019-02-26T19:01:47.817Z,66.03
2019-02-26T19:04:18.842Z,64.58
2019-02-26T19:10:01.289Z,64.22
2019-02-26T19:12:36.641Z,64.87
2019-02-26T19:15:08.618Z,64.99
2019-02-26T19:17:41.814Z,65.16
2019-02-26T19:20:14.925Z,65.07
2019-02-26T19:22:52.102Z,64.79
2019-02-26T19:28:19.130Z,64.85
2019-02-26T19:30:49.883Z,65.03
2019-02-26T19:36:15.338Z,64.76
2019-02-26T19:39:04.587Z,64.62
2019-02-26T19:41:36.572Z,64.48
2019-02-26T19:44:06.937Z,64.14
2019-02-26T19:46:49.568Z,64.27
2019-02-26T19:49:20.723Z,65.07
2019-02-26T19:51:51.937Z,65.69
2019-02-26T19:54:41.565Z,65.64
2019-02-26T19:57:16.397Z,65.54
2019-02-26T20:00:02.587Z,64.61
2019-02-26T20:05:30.411Z,64.04
2019-02-26T20:11:41.000Z,63.40
2019-02-26T20:14:14.664Z,64.21
2019-02-26T20:19:32.978Z,65.50
2019-02-26T20:22:03.903Z,65.86
2019-02-26T20:24:34.389Z,65.66
2019-02-26T20:27:05.214Z,65.04
2019-02-26T20:29:35.866Z,64.46
2019-02-26T20:38:40.275Z,66.85
2019-02-26T20:41:24.461Z,67.66
2019-02-26T20:44:14.242Z,68.19
2019-02-26T20:47:09.842Z,68.09
2019-02-26T20:49:40.954Z,68.05
2019-02-26T20:52:49.486Z,67.14
2019-02-26T20:55:41.167Z,66.51
2019-02-26T21:01:33.885Z,66.23
2019-02-26T21:04:24.335Z,66.56
2019-02-26T21:07:14.217Z,66.93
2019-02-26T21:09:45.250Z,68.18
2019-02-26T21:12:16.109Z,69.02
2019-02-26T21:17:52.893Z,68.80
2019-02-26T21:20:23.714Z,67.90
2019-02-26T21:22:55.021Z,67.72
2019-02-26T21:25:47.513Z,67.40
2019-02-26T21:28:24.556Z,67.50
2019-02-26T21:30:55.118Z,67.96
2019-02-26T21:33:25.697Z,68.46
2019-02-26T21:35:56.314Z,68.54
2019-02-26T21:38:27.078Z,68.37
2019-02-26T21:40:57.978Z,68.10
2019-02-26T21:43:28.544Z,67.43
2019-02-26T21:45:59.052Z,67.30
2019-02-26T21:48:29.684Z,67.42
2019-02-26T21:51:00.152Z,67.33
2019-02-26T21:53:30.837Z,67.04
2019-02-26T21:56:01.453Z,66.96
2019-02-26T21:58:31.975Z,67.26
2019-02-26T22:01:02.543Z,67.68
2019-02-26T22:03:34.882Z,67.92
2019-02-26T22:06:05.763Z,68.76
2019-02-26T22:08:57.117Z,68.75
2019-02-26T22:11:34.545Z,67.97
2019-02-26T22:17:06.933Z,66.88
2019-02-26T22:22:26.155Z,67.24
2019-02-26T22:25:15.951Z,67.17
2019-02-26T22:27:49.664Z,67.52
2019-02-26T22:30:22.876Z,66.98
2019-02-26T22:32:59.770Z,66.61
2019-02-26T22:35:30.343Z,66.75
2019-02-26T22:38:00.961Z,66.62
2019-02-26T22:40:31.703Z,67.33
2019-02-26T22:43:02.314Z,67.97
2019-02-26T22:45:32.969Z,68.09
2019-02-26T22:48:03.631Z,67.87
2019-02-26T22:53:59.669Z,66.82
2019-02-26T22:56:30.328Z,66.67
2019-02-26T22:59:01.041Z,66.65
2019-02-26T23:01:40.517Z,66.88
2019-02-26T23:04:11.454Z,67.93
2019-02-26T23:06:42.040Z,68.45
2019-02-26T23:11:59.128Z,68.10
2019-02-26T23:17:14.978Z,67.46
2019-02-26T23:19:45.737Z,67.57
2019-02-26T23:22:55.448Z,67.51
2019-02-26T23:25:26.257Z,67.41
2019-02-26T23:27:57.037Z,67.36
2019-02-26T23:30:27.745Z,67.55
2019-02-26T23:35:43.347Z,67.60
2019-02-26T23:38:13.981Z,67.70
2019-02-26T23:40:44.511Z,67.70
2019-02-26T23:43:15.142Z,67.60
2019-02-26T23:45:45.722Z,67.74
2019-02-26T23:48:16.372Z,67.59
2019-02-26T23:50:47.866Z,67.57
2019-02-26T23:53:38.455Z,67.36
2019-02-26T23:56:09.107Z,67.25
2019-02-26T23:58:39.657Z,67.24
